sensor_id;sensor_type;location;lat;lon;timestamp;P1;durP1;ratioP1;P2;durP2;ratioP2
70829;SDS011;58451;51.550;7.208;2022-12-07T00:01:21;21.90;;;9.70;;
70829;SDS011;58451;51.550;7.208;2022-12-07T00:02:55;18.20;;;8.40;;
70829;SDS011;58451;51.550;7.208;2022-12-07T00:04:27;18.40;;;9.00;;
70829;SDS011;58451;51.550;7.208;2022-12-07T00:06:02;19.20;;;9.60;;
70829;SDS011;58451;51.550;7.208;2022-12-07T00:07:35;18.20;;;8.70;;
70829;SDS011;58451;51.550;7.208;2022-12-07T00:09:14;14.60;;;6.20;;
70829;SDS011;58451;51.550;7.208;2022-12-07T00:10:47;19.00;;;9.10;;
70829;SDS011;58451;51.550;7.208;2022-12-07T00:12:43;19.20;;;9.70;;
70829;SDS011;58451;51.550;7.208;2022-12-07T00:14:18;19.40;;;9.10;;
70829;SDS011;58451;51.550;7.208;2022-12-07T00:15:52;20.20;;;8.90;;
70829;SDS011;58451;51.550;7.208;2022-12-07T00:17:24;17.40;;;8.40;;
70829;SDS011;58451;51.550;7.208;2022-12-07T00:18:56;18.90;;;9.00;;
70829;SDS011;58451;51.550;7.208;2022-12-07T00:20:28;20.10;;;10.30;;
70829;SDS011;58451;51.550;7.208;2022-12-07T00:22:00;20.20;;;9.20;;
70829;SDS011;58451;51.550;7.208;2022-12-07T00:23:32;16.50;;;7.40;;
70829;SDS011;58451;51.550;7.208;2022-12-07T00:25:09;18.70;;;8.50;;
70829;SDS011;58451;51.550;7.208;2022-12-07T00:26:42;16.60;;;8.50;;
70829;SDS011;58451;51.550;7.208;2022-12-07T00:28:13;22.10;;;9.90;;
70829;SDS011;58451;51.550;7.208;2022-12-07T00:29:44;15.40;;;7.40;;
70829;SDS011;58451;51.550;7.208;2022-12-07T00:31:18;17.40;;;7.80;;
70829;SDS011;58451;51.550;7.208;2022-12-07T00:32:50;18.30;;;9.10;;
70829;SDS011;58451;51.550;7.208;2022-12-07T00:34:21;15.80;;;7.30;;
70829;SDS011;58451;51.550;7.208;2022-12-07T00:35:56;16.70;;;8.40;;
70829;SDS011;58451;51.550;7.208;2022-12-07T00:37:28;17.20;;;8.70;;
70829;SDS011;58451;51.550;7.208;2022-12-07T00:39:00;18.00;;;9.20;;
70829;SDS011;58451;51.550;7.208;2022-12-07T00:40:32;17.10;;;8.30;;
70829;SDS011;58451;51.550;7.208;2022-12-07T00:42:04;15.70;;;7.30;;
70829;SDS011;58451;51.550;7.208;2022-12-07T00:43:35;15.00;;;6.70;;
70829;SDS011;58451;51.550;7.208;2022-12-07T00:45:07;17.30;;;8.40;;
70829;SDS011;58451;51.550;7.208;2022-12-07T00:46:38;16.80;;;8.90;;
70829;SDS011;58451;51.550;7.208;2022-12-07T00:48:11;19.60;;;9.60;;
70829;SDS011;58451;51.550;7.208;2022-12-07T00:49:42;19.60;;;9.10;;
70829;SDS011;58451;51.550;7.208;2022-12-07T00:51:16;21.20;;;9.80;;
70829;SDS011;58451;51.550;7.208;2022-12-07T00:52:49;17.50;;;8.70;;
70829;SDS011;58451;51.550;7.208;2022-12-07T00:54:21;21.20;;;9.90;;
70829;SDS011;58451;51.550;7.208;2022-12-07T00:55:53;19.00;;;9.20;;
70829;SDS011;58451;51.550;7.208;2022-12-07T00:57:26;19.80;;;9.00;;
70829;SDS011;58451;51.550;7.208;2022-12-07T00:59:02;22.40;;;11.30;;
70829;SDS011;58451;51.550;7.208;2022-12-07T01:00:39;19.10;;;9.00;;
70829;SDS011;58451;51.550;7.208;2022-12-07T01:02:12;19.20;;;9.60;;
70829;SDS011;58451;51.550;7.208;2022-12-07T01:03:43;21.50;;;10.90;;
70829;SDS011;58451;51.550;7.208;2022-12-07T01:05:14;20.10;;;8.20;;
70829;SDS011;58451;51.550;7.208;2022-12-07T01:06:45;19.50;;;9.80;;
70829;SDS011;58451;51.550;7.208;2022-12-07T01:08:16;21.20;;;10.20;;
70829;SDS011;58451;51.550;7.208;2022-12-07T01:09:49;21.40;;;10.30;;
70829;SDS011;58451;51.550;7.208;2022-12-07T01:11:23;17.50;;;8.20;;
70829;SDS011;58451;51.550;7.208;2022-12-07T01:12:56;20.10;;;10.20;;
70829;SDS011;58451;51.550;7.208;2022-12-07T01:14:28;22.70;;;10.90;;
70829;SDS011;58451;51.550;7.208;2022-12-07T01:16:02;21.10;;;9.90;;
70829;SDS011;58451;51.550;7.208;2022-12-07T01:17:34;19.60;;;9.60;;
70829;SDS011;58451;51.550;7.208;2022-12-07T01:19:05;24.10;;;10.90;;
70829;SDS011;58451;51.550;7.208;2022-12-07T01:20:37;21.10;;;10.10;;
70829;SDS011;58451;51.550;7.208;2022-12-07T01:22:08;21.80;;;11.30;;
70829;SDS011;58451;51.550;7.208;2022-12-07T01:23:40;20.30;;;9.90;;
70829;SDS011;58451;51.550;7.208;2022-12-07T01:25:11;22.50;;;10.60;;
70829;SDS011;58451;51.550;7.208;2022-12-07T01:26:44;18.20;;;9.40;;
70829;SDS011;58451;51.550;7.208;2022-12-07T01:28:15;21.10;;;10.70;;
70829;SDS011;58451;51.550;7.208;2022-12-07T01:29:46;22.70;;;11.30;;
70829;SDS011;58451;51.550;7.208;2022-12-07T01:31:20;24.40;;;12.20;;
70829;SDS011;58451;51.550;7.208;2022-12-07T01:32:52;21.80;;;11.10;;
70829;SDS011;58451;51.550;7.208;2022-12-07T01:34:23;23.70;;;11.60;;
70829;SDS011;58451;51.550;7.208;2022-12-07T01:36:12;19.10;;;9.70;;
70829;SDS011;58451;51.550;7.208;2022-12-07T01:37:45;21.70;;;10.50;;
70829;SDS011;58451;51.550;7.208;2022-12-07T01:39:16;20.60;;;10.00;;
70829;SDS011;58451;51.550;7.208;2022-12-07T01:40:54;22.50;;;10.40;;
70829;SDS011;58451;51.550;7.208;2022-12-07T01:42:26;23.20;;;11.00;;
70829;SDS011;58451;51.550;7.208;2022-12-07T01:45:50;24.80;;;11.90;;
70829;SDS011;58451;51.550;7.208;2022-12-07T01:47:21;17.80;;;9.00;;
70829;SDS011;58451;51.550;7.208;2022-12-07T01:48:52;20.80;;;10.30;;
70829;SDS011;58451;51.550;7.208;2022-12-07T01:50:30;24.90;;;10.80;;
70829;SDS011;58451;51.550;7.208;2022-12-07T01:53:48;17.00;;;7.90;;
70829;SDS011;58451;51.550;7.208;2022-12-07T01:55:19;24.60;;;11.50;;
70829;SDS011;58451;51.550;7.208;2022-12-07T01:56:53;22.60;;;11.90;;
70829;SDS011;58451;51.550;7.208;2022-12-07T01:58:26;22.50;;;11.00;;
70829;SDS011;58451;51.550;7.208;2022-12-07T01:59:59;22.80;;;12.10;;
70829;SDS011;58451;51.550;7.208;2022-12-07T02:01:43;20.40;;;10.10;;
70829;SDS011;58451;51.550;7.208;2022-12-07T02:03:22;19.70;;;9.60;;
70829;SDS011;58451;51.550;7.208;2022-12-07T02:04:59;21.20;;;9.80;;
70829;SDS011;58451;51.550;7.208;2022-12-07T02:06:31;22.80;;;11.20;;
70829;SDS011;58451;51.550;7.208;2022-12-07T02:08:03;23.20;;;10.80;;
70829;SDS011;58451;51.550;7.208;2022-12-07T02:09:35;24.70;;;12.50;;
70829;SDS011;58451;51.550;7.208;2022-12-07T02:11:07;26.40;;;12.30;;
70829;SDS011;58451;51.550;7.208;2022-12-07T02:12:40;24.60;;;12.00;;
70829;SDS011;58451;51.550;7.208;2022-12-07T02:14:11;23.80;;;12.80;;
70829;SDS011;58451;51.550;7.208;2022-12-07T02:17:31;26.70;;;13.30;;
70829;SDS011;58451;51.550;7.208;2022-12-07T02:30:44;24.80;;;11.30;;
70829;SDS011;58451;51.550;7.208;2022-12-07T02:34:08;25.70;;;12.00;;
70829;SDS011;58451;51.550;7.208;2022-12-07T02:35:48;26.80;;;12.10;;
70829;SDS011;58451;51.550;7.208;2022-12-07T02:37:35;24.80;;;11.70;;
70829;SDS011;58451;51.550;7.208;2022-12-07T02:39:19;22.70;;;10.40;;
70829;SDS011;58451;51.550;7.208;2022-12-07T02:41:09;24.50;;;12.30;;
70829;SDS011;58451;51.550;7.208;2022-12-07T02:42:52;20.20;;;9.20;;
70829;SDS011;58451;51.550;7.208;2022-12-07T02:44:28;29.40;;;13.40;;
70829;SDS011;58451;51.550;7.208;2022-12-07T02:46:06;24.70;;;11.40;;
70829;SDS011;58451;51.550;7.208;2022-12-07T02:47:41;27.40;;;12.10;;
70829;SDS011;58451;51.550;7.208;2022-12-07T02:49:14;26.50;;;11.40;;
70829;SDS011;58451;51.550;7.208;2022-12-07T02:50:50;23.80;;;11.00;;
70829;SDS011;58451;51.550;7.208;2022-12-07T02:52:22;21.90;;;10.60;;
70829;SDS011;58451;51.550;7.208;2022-12-07T02:53:54;25.50;;;11.10;;
70829;SDS011;58451;51.550;7.208;2022-12-07T02:55:31;26.10;;;12.30;;
70829;SDS011;58451;51.550;7.208;2022-12-07T03:01:30;24.10;;;10.60;;
70829;SDS011;58451;51.550;7.208;2022-12-07T03:03:14;23.40;;;10.20;;
70829;SDS011;58451;51.550;7.208;2022-12-07T03:09:27;21.40;;;10.40;;
70829;SDS011;58451;51.550;7.208;2022-12-07T03:11:07;25.80;;;10.90;;
70829;SDS011;58451;51.550;7.208;2022-12-07T03:14:32;22.90;;;10.30;;
70829;SDS011;58451;51.550;7.208;2022-12-07T03:16:15;23.80;;;11.70;;
70829;SDS011;58451;51.550;7.208;2022-12-07T03:17:57;24.10;;;11.70;;
70829;SDS011;58451;51.550;7.208;2022-12-07T03:19:33;21.10;;;10.50;;
70829;SDS011;58451;51.550;7.208;2022-12-07T03:21:12;23.40;;;12.10;;
70829;SDS011;58451;51.550;7.208;2022-12-07T03:22:46;21.50;;;9.90;;
70829;SDS011;58451;51.550;7.208;2022-12-07T03:24:21;22.70;;;10.40;;
70829;SDS011;58451;51.550;7.208;2022-12-07T03:25:59;27.00;;;12.00;;
70829;SDS011;58451;51.550;7.208;2022-12-07T03:27:35;24.70;;;12.10;;
70829;SDS011;58451;51.550;7.208;2022-12-07T03:29:37;19.80;;;9.40;;
70829;SDS011;58451;51.550;7.208;2022-12-07T03:31:33;25.10;;;11.60;;
70829;SDS011;58451;51.550;7.208;2022-12-07T03:35:22;25.20;;;11.70;;
70829;SDS011;58451;51.550;7.208;2022-12-07T03:37:34;22.80;;;10.70;;
70829;SDS011;58451;51.550;7.208;2022-12-07T03:39:41;21.90;;;10.20;;
70829;SDS011;58451;51.550;7.208;2022-12-07T03:41:33;23.70;;;10.20;;
70829;SDS011;58451;51.550;7.208;2022-12-07T03:43:15;21.60;;;10.20;;
70829;SDS011;58451;51.550;7.208;2022-12-07T03:44:53;24.60;;;11.10;;
70829;SDS011;58451;51.550;7.208;2022-12-07T03:46:40;24.50;;;10.50;;
70829;SDS011;58451;51.550;7.208;2022-12-07T03:48:27;26.50;;;11.40;;
70829;SDS011;58451;51.550;7.208;2022-12-07T03:50:14;23.20;;;9.90;;
70829;SDS011;58451;51.550;7.208;2022-12-07T03:53:47;21.50;;;10.70;;
70829;SDS011;58451;51.550;7.208;2022-12-07T03:55:34;26.30;;;11.40;;
70829;SDS011;58451;51.550;7.208;2022-12-07T03:57:10;24.00;;;11.00;;
70829;SDS011;58451;51.550;7.208;2022-12-07T03:58:43;26.10;;;11.50;;
70829;SDS011;58451;51.550;7.208;2022-12-07T04:00:15;19.20;;;8.40;;
70829;SDS011;58451;51.550;7.208;2022-12-07T04:01:53;26.40;;;11.50;;
70829;SDS011;58451;51.550;7.208;2022-12-07T04:03:29;27.20;;;11.70;;
70829;SDS011;58451;51.550;7.208;2022-12-07T04:05:00;27.30;;;12.40;;
70829;SDS011;58451;51.550;7.208;2022-12-07T04:06:32;29.10;;;12.40;;
70829;SDS011;58451;51.550;7.208;2022-12-07T04:08:03;24.50;;;12.00;;
70829;SDS011;58451;51.550;7.208;2022-12-07T04:09:35;29.80;;;12.70;;
70829;SDS011;58451;51.550;7.208;2022-12-07T04:11:06;24.40;;;11.60;;
70829;SDS011;58451;51.550;7.208;2022-12-07T04:12:37;24.10;;;10.20;;
70829;SDS011;58451;51.550;7.208;2022-12-07T04:14:08;25.40;;;11.00;;
70829;SDS011;58451;51.550;7.208;2022-12-07T04:15:49;27.30;;;10.90;;
70829;SDS011;58451;51.550;7.208;2022-12-07T04:17:20;22.40;;;10.20;;
70829;SDS011;58451;51.550;7.208;2022-12-07T04:18:51;20.70;;;9.10;;
70829;SDS011;58451;51.550;7.208;2022-12-07T04:20:23;24.20;;;11.30;;
70829;SDS011;58451;51.550;7.208;2022-12-07T04:21:57;26.60;;;10.30;;
70829;SDS011;58451;51.550;7.208;2022-12-07T04:23:29;25.40;;;11.20;;
70829;SDS011;58451;51.550;7.208;2022-12-07T04:25:00;22.60;;;9.40;;
70829;SDS011;58451;51.550;7.208;2022-12-07T04:26:31;23.50;;;10.90;;
70829;SDS011;58451;51.550;7.208;2022-12-07T04:28:02;26.30;;;11.90;;
70829;SDS011;58451;51.550;7.208;2022-12-07T04:29:34;27.90;;;12.00;;
70829;SDS011;58451;51.550;7.208;2022-12-07T04:31:05;21.00;;;9.50;;
70829;SDS011;58451;51.550;7.208;2022-12-07T04:32:36;23.10;;;10.80;;
70829;SDS011;58451;51.550;7.208;2022-12-07T04:34:07;24.00;;;10.70;;
70829;SDS011;58451;51.550;7.208;2022-12-07T04:35:39;20.70;;;9.50;;
70829;SDS011;58451;51.550;7.208;2022-12-07T04:37:12;20.80;;;9.00;;
70829;SDS011;58451;51.550;7.208;2022-12-07T04:38:43;22.70;;;9.80;;
70829;SDS011;58451;51.550;7.208;2022-12-07T04:40:14;21.50;;;9.60;;
70829;SDS011;58451;51.550;7.208;2022-12-07T04:41:46;18.70;;;8.40;;
70829;SDS011;58451;51.550;7.208;2022-12-07T04:43:17;16.80;;;7.80;;
70829;SDS011;58451;51.550;7.208;2022-12-07T04:44:48;17.90;;;7.30;;
70829;SDS011;58451;51.550;7.208;2022-12-07T04:46:19;18.10;;;8.20;;
70829;SDS011;58451;51.550;7.208;2022-12-07T04:47:50;21.60;;;10.00;;
70829;SDS011;58451;51.550;7.208;2022-12-07T04:49:21;21.10;;;9.20;;
70829;SDS011;58451;51.550;7.208;2022-12-07T04:50:53;19.00;;;8.20;;
70829;SDS011;58451;51.550;7.208;2022-12-07T04:52:24;19.00;;;8.60;;
70829;SDS011;58451;51.550;7.208;2022-12-07T04:53:55;19.60;;;8.80;;
70829;SDS011;58451;51.550;7.208;2022-12-07T04:55:27;15.40;;;5.80;;
70829;SDS011;58451;51.550;7.208;2022-12-07T04:56:58;19.50;;;8.20;;
70829;SDS011;58451;51.550;7.208;2022-12-07T04:58:29;21.00;;;8.80;;
70829;SDS011;58451;51.550;7.208;2022-12-07T05:00:01;22.40;;;9.90;;
70829;SDS011;58451;51.550;7.208;2022-12-07T05:01:33;20.50;;;9.10;;
70829;SDS011;58451;51.550;7.208;2022-12-07T05:03:05;19.10;;;8.20;;
70829;SDS011;58451;51.550;7.208;2022-12-07T05:04:36;21.40;;;9.40;;
70829;SDS011;58451;51.550;7.208;2022-12-07T05:06:08;19.10;;;8.50;;
70829;SDS011;58451;51.550;7.208;2022-12-07T05:07:44;19.90;;;8.70;;
70829;SDS011;58451;51.550;7.208;2022-12-07T05:09:15;18.30;;;9.00;;
70829;SDS011;58451;51.550;7.208;2022-12-07T05:10:48;22.00;;;9.90;;
70829;SDS011;58451;51.550;7.208;2022-12-07T05:12:23;20.70;;;9.50;;
70829;SDS011;58451;51.550;7.208;2022-12-07T05:13:54;21.30;;;8.60;;
70829;SDS011;58451;51.550;7.208;2022-12-07T05:28:57;20.60;;;6.80;;
70829;SDS011;58451;51.550;7.208;2022-12-07T05:30:29;21.20;;;9.40;;
70829;SDS011;58451;51.550;7.208;2022-12-07T05:32:02;22.50;;;9.40;;
70829;SDS011;58451;51.550;7.208;2022-12-07T05:33:34;20.40;;;9.30;;
70829;SDS011;58451;51.550;7.208;2022-12-07T05:35:07;16.80;;;7.00;;
70829;SDS011;58451;51.550;7.208;2022-12-07T05:36:40;18.80;;;8.90;;
70829;SDS011;58451;51.550;7.208;2022-12-07T05:38:11;19.50;;;8.10;;
70829;SDS011;58451;51.550;7.208;2022-12-07T05:39:43;21.80;;;8.20;;
70829;SDS011;58451;51.550;7.208;2022-12-07T05:41:17;18.60;;;8.30;;
70829;SDS011;58451;51.550;7.208;2022-12-07T05:43:10;15.70;;;5.80;;
70829;SDS011;58451;51.550;7.208;2022-12-07T05:44:46;20.90;;;8.30;;
70829;SDS011;58451;51.550;7.208;2022-12-07T05:46:18;22.40;;;10.40;;
70829;SDS011;58451;51.550;7.208;2022-12-07T05:47:50;22.20;;;9.30;;
70829;SDS011;58451;51.550;7.208;2022-12-07T05:49:22;21.40;;;9.90;;
70829;SDS011;58451;51.550;7.208;2022-12-07T05:50:54;18.20;;;8.50;;
70829;SDS011;58451;51.550;7.208;2022-12-07T05:52:26;20.60;;;8.50;;
70829;SDS011;58451;51.550;7.208;2022-12-07T05:53:58;23.00;;;10.60;;
70829;SDS011;58451;51.550;7.208;2022-12-07T05:55:30;24.80;;;10.90;;
70829;SDS011;58451;51.550;7.208;2022-12-07T05:57:01;22.80;;;10.30;;
70829;SDS011;58451;51.550;7.208;2022-12-07T05:58:35;24.20;;;10.90;;
70829;SDS011;58451;51.550;7.208;2022-12-07T06:00:25;20.50;;;9.20;;
70829;SDS011;58451;51.550;7.208;2022-12-07T06:02:03;24.40;;;9.30;;
70829;SDS011;58451;51.550;7.208;2022-12-07T06:03:37;19.90;;;9.10;;
70829;SDS011;58451;51.550;7.208;2022-12-07T06:05:09;23.10;;;9.60;;
70829;SDS011;58451;51.550;7.208;2022-12-07T06:06:41;20.80;;;9.90;;
70829;SDS011;58451;51.550;7.208;2022-12-07T06:08:13;20.80;;;9.70;;
70829;SDS011;58451;51.550;7.208;2022-12-07T06:09:46;21.50;;;9.60;;
70829;SDS011;58451;51.550;7.208;2022-12-07T06:11:18;22.30;;;9.50;;
70829;SDS011;58451;51.550;7.208;2022-12-07T06:13:08;21.10;;;9.40;;
70829;SDS011;58451;51.550;7.208;2022-12-07T06:14:45;20.50;;;9.10;;
70829;SDS011;58451;51.550;7.208;2022-12-07T06:16:17;18.80;;;9.00;;
70829;SDS011;58451;51.550;7.208;2022-12-07T06:17:49;20.30;;;9.00;;
70829;SDS011;58451;51.550;7.208;2022-12-07T06:19:21;17.20;;;7.60;;
70829;SDS011;58451;51.550;7.208;2022-12-07T06:20:53;21.90;;;9.30;;
70829;SDS011;58451;51.550;7.208;2022-12-07T06:22:25;19.10;;;8.90;;
70829;SDS011;58451;51.550;7.208;2022-12-07T06:23:57;23.70;;;9.70;;
70829;SDS011;58451;51.550;7.208;2022-12-07T06:25:29;19.80;;;8.90;;
70829;SDS011;58451;51.550;7.208;2022-12-07T06:27:01;19.40;;;8.00;;
70829;SDS011;58451;51.550;7.208;2022-12-07T06:28:33;19.50;;;6.80;;
70829;SDS011;58451;51.550;7.208;2022-12-07T06:30:05;19.20;;;8.70;;
70829;SDS011;58451;51.550;7.208;2022-12-07T06:31:38;18.10;;;8.40;;
70829;SDS011;58451;51.550;7.208;2022-12-07T06:33:11;17.70;;;7.80;;
70829;SDS011;58451;51.550;7.208;2022-12-07T06:34:42;19.70;;;8.60;;
70829;SDS011;58451;51.550;7.208;2022-12-07T06:36:14;19.70;;;8.50;;
70829;SDS011;58451;51.550;7.208;2022-12-07T06:37:46;18.50;;;7.90;;
70829;SDS011;58451;51.550;7.208;2022-12-07T06:39:24;20.80;;;9.30;;
70829;SDS011;58451;51.550;7.208;2022-12-07T06:41:00;27.40;;;9.30;;
70829;SDS011;58451;51.550;7.208;2022-12-07T06:42:31;20.10;;;8.30;;
70829;SDS011;58451;51.550;7.208;2022-12-07T06:44:04;19.90;;;7.80;;
70829;SDS011;58451;51.550;7.208;2022-12-07T06:45:37;20.20;;;9.00;;
70829;SDS011;58451;51.550;7.208;2022-12-07T06:47:09;17.10;;;7.30;;
70829;SDS011;58451;51.550;7.208;2022-12-07T06:49:01;19.00;;;7.20;;
70829;SDS011;58451;51.550;7.208;2022-12-07T06:50:34;16.20;;;7.80;;
70829;SDS011;58451;51.550;7.208;2022-12-07T06:52:14;17.30;;;8.10;;
70829;SDS011;58451;51.550;7.208;2022-12-07T06:53:47;16.50;;;6.40;;
70829;SDS011;58451;51.550;7.208;2022-12-07T06:55:19;19.20;;;8.00;;
70829;SDS011;58451;51.550;7.208;2022-12-07T06:56:51;21.70;;;9.00;;
70829;SDS011;58451;51.550;7.208;2022-12-07T06:58:25;18.10;;;7.80;;
70829;SDS011;58451;51.550;7.208;2022-12-07T06:59:57;18.40;;;7.50;;
70829;SDS011;58451;51.550;7.208;2022-12-07T07:01:29;16.10;;;6.70;;
70829;SDS011;58451;51.550;7.208;2022-12-07T07:03:02;19.80;;;8.60;;
70829;SDS011;58451;51.550;7.208;2022-12-07T07:04:34;19.50;;;7.90;;
70829;SDS011;58451;51.550;7.208;2022-12-07T07:06:06;17.00;;;7.60;;
70829;SDS011;58451;51.550;7.208;2022-12-07T07:07:39;21.10;;;9.20;;
70829;SDS011;58451;51.550;7.208;2022-12-07T07:09:30;16.40;;;6.90;;
70829;SDS011;58451;51.550;7.208;2022-12-07T07:11:03;19.50;;;8.40;;
70829;SDS011;58451;51.550;7.208;2022-12-07T07:12:35;19.50;;;7.90;;
70829;SDS011;58451;51.550;7.208;2022-12-07T07:14:07;19.50;;;7.60;;
70829;SDS011;58451;51.550;7.208;2022-12-07T07:15:39;22.20;;;9.20;;
70829;SDS011;58451;51.550;7.208;2022-12-07T07:17:11;15.90;;;7.20;;
70829;SDS011;58451;51.550;7.208;2022-12-07T07:18:43;20.60;;;8.80;;
70829;SDS011;58451;51.550;7.208;2022-12-07T07:20:18;18.20;;;7.10;;
70829;SDS011;58451;51.550;7.208;2022-12-07T07:21:50;21.00;;;8.70;;
70829;SDS011;58451;51.550;7.208;2022-12-07T07:23:23;21.50;;;8.80;;
70829;SDS011;58451;51.550;7.208;2022-12-07T07:24:55;19.80;;;9.20;;
70829;SDS011;58451;51.550;7.208;2022-12-07T07:26:27;22.60;;;9.00;;
70829;SDS011;58451;51.550;7.208;2022-12-07T07:27:59;18.80;;;7.80;;
70829;SDS011;58451;51.550;7.208;2022-12-07T07:29:39;19.00;;;7.60;;
70829;SDS011;58451;51.550;7.208;2022-12-07T07:31:11;24.20;;;9.20;;
70829;SDS011;58451;51.550;7.208;2022-12-07T07:32:43;23.50;;;9.40;;
70829;SDS011;58451;51.550;7.208;2022-12-07T07:34:15;21.50;;;8.40;;
70829;SDS011;58451;51.550;7.208;2022-12-07T07:35:46;26.00;;;8.80;;
70829;SDS011;58451;51.550;7.208;2022-12-07T07:37:18;21.30;;;8.80;;
70829;SDS011;58451;51.550;7.208;2022-12-07T07:38:52;18.40;;;7.00;;
70829;SDS011;58451;51.550;7.208;2022-12-07T07:40:25;22.70;;;8.70;;
70829;SDS011;58451;51.550;7.208;2022-12-07T07:47:24;17.80;;;7.70;;
70829;SDS011;58451;51.550;7.208;2022-12-07T07:48:56;19.80;;;7.90;;
70829;SDS011;58451;51.550;7.208;2022-12-07T07:50:29;21.90;;;8.90;;
70829;SDS011;58451;51.550;7.208;2022-12-07T07:52:00;18.30;;;7.80;;
70829;SDS011;58451;51.550;7.208;2022-12-07T07:53:32;20.30;;;8.00;;
70829;SDS011;58451;51.550;7.208;2022-12-07T07:55:05;21.10;;;8.10;;
70829;SDS011;58451;51.550;7.208;2022-12-07T07:56:39;15.10;;;5.30;;
70829;SDS011;58451;51.550;7.208;2022-12-07T07:58:11;15.10;;;6.30;;
70829;SDS011;58451;51.550;7.208;2022-12-07T07:59:43;18.10;;;6.70;;
70829;SDS011;58451;51.550;7.208;2022-12-07T08:01:15;17.80;;;6.60;;
70829;SDS011;58451;51.550;7.208;2022-12-07T08:02:48;16.10;;;6.60;;
70829;SDS011;58451;51.550;7.208;2022-12-07T08:04:21;15.70;;;6.60;;
70829;SDS011;58451;51.550;7.208;2022-12-07T08:05:58;20.10;;;7.30;;
70829;SDS011;58451;51.550;7.208;2022-12-07T08:07:50;17.10;;;6.50;;
70829;SDS011;58451;51.550;7.208;2022-12-07T08:09:22;15.70;;;5.60;;
70829;SDS011;58451;51.550;7.208;2022-12-07T08:10:58;21.30;;;8.10;;
70829;SDS011;58451;51.550;7.208;2022-12-07T08:12:52;17.90;;;7.40;;
70829;SDS011;58451;51.550;7.208;2022-12-07T08:15:05;14.80;;;5.70;;
70829;SDS011;58451;51.550;7.208;2022-12-07T08:16:59;22.60;;;7.10;;
70829;SDS011;58451;51.550;7.208;2022-12-07T08:18:35;18.80;;;6.60;;
70829;SDS011;58451;51.550;7.208;2022-12-07T08:20:08;17.50;;;5.80;;
70829;SDS011;58451;51.550;7.208;2022-12-07T08:21:40;16.60;;;5.70;;
70829;SDS011;58451;51.550;7.208;2022-12-07T08:23:12;16.50;;;7.30;;
70829;SDS011;58451;51.550;7.208;2022-12-07T08:24:47;19.40;;;6.10;;
70829;SDS011;58451;51.550;7.208;2022-12-07T08:26:20;13.50;;;5.00;;
70829;SDS011;58451;51.550;7.208;2022-12-07T08:27:54;16.20;;;5.10;;
70829;SDS011;58451;51.550;7.208;2022-12-07T08:29:26;13.30;;;5.40;;
70829;SDS011;58451;51.550;7.208;2022-12-07T08:31:25;13.10;;;5.00;;
70829;SDS011;58451;51.550;7.208;2022-12-07T08:33:03;14.10;;;4.80;;
70829;SDS011;58451;51.550;7.208;2022-12-07T08:34:36;13.50;;;5.30;;
70829;SDS011;58451;51.550;7.208;2022-12-07T08:36:10;14.30;;;5.50;;
70829;SDS011;58451;51.550;7.208;2022-12-07T08:37:44;13.30;;;5.10;;
70829;SDS011;58451;51.550;7.208;2022-12-07T08:39:15;11.40;;;4.20;;
70829;SDS011;58451;51.550;7.208;2022-12-07T08:41:03;16.70;;;6.00;;
70829;SDS011;58451;51.550;7.208;2022-12-07T08:42:35;16.40;;;5.40;;
70829;SDS011;58451;51.550;7.208;2022-12-07T08:44:11;13.70;;;5.50;;
70829;SDS011;58451;51.550;7.208;2022-12-07T08:45:43;16.70;;;5.40;;
70829;SDS011;58451;51.550;7.208;2022-12-07T08:47:15;15.00;;;5.40;;
70829;SDS011;58451;51.550;7.208;2022-12-07T08:49:00;13.30;;;4.50;;
70829;SDS011;58451;51.550;7.208;2022-12-07T08:50:37;14.10;;;5.20;;
70829;SDS011;58451;51.550;7.208;2022-12-07T08:52:17;13.60;;;5.20;;
70829;SDS011;58451;51.550;7.208;2022-12-07T08:53:51;15.10;;;4.60;;
70829;SDS011;58451;51.550;7.208;2022-12-07T08:55:24;14.50;;;5.50;;
70829;SDS011;58451;51.550;7.208;2022-12-07T08:56:57;13.20;;;4.60;;
70829;SDS011;58451;51.550;7.208;2022-12-07T08:58:30;12.30;;;4.70;;
70829;SDS011;58451;51.550;7.208;2022-12-07T09:00:04;13.10;;;5.00;;
70829;SDS011;58451;51.550;7.208;2022-12-07T09:01:37;14.50;;;5.10;;
70829;SDS011;58451;51.550;7.208;2022-12-07T09:03:09;13.90;;;5.10;;
70829;SDS011;58451;51.550;7.208;2022-12-07T09:04:41;17.00;;;5.20;;
70829;SDS011;58451;51.550;7.208;2022-12-07T09:06:12;11.60;;;4.40;;
70829;SDS011;58451;51.550;7.208;2022-12-07T09:07:46;13.80;;;3.80;;
70829;SDS011;58451;51.550;7.208;2022-12-07T09:09:21;11.70;;;3.90;;
70829;SDS011;58451;51.550;7.208;2022-12-07T09:10:53;14.00;;;5.00;;
70829;SDS011;58451;51.550;7.208;2022-12-07T09:12:25;13.80;;;4.40;;
70829;SDS011;58451;51.550;7.208;2022-12-07T09:13:57;11.30;;;3.80;;
70829;SDS011;58451;51.550;7.208;2022-12-07T09:15:29;13.60;;;3.80;;
70829;SDS011;58451;51.550;7.208;2022-12-07T09:17:09;13.60;;;3.80;;
70829;SDS011;58451;51.550;7.208;2022-12-07T09:18:46;13.40;;;4.50;;
70829;SDS011;58451;51.550;7.208;2022-12-07T09:20:18;11.30;;;3.50;;
70829;SDS011;58451;51.550;7.208;2022-12-07T09:21:58;10.70;;;3.40;;
70829;SDS011;58451;51.550;7.208;2022-12-07T09:23:30;11.80;;;4.20;;
70829;SDS011;58451;51.550;7.208;2022-12-07T09:25:04;16.00;;;3.90;;
70829;SDS011;58451;51.550;7.208;2022-12-07T09:26:36;12.90;;;4.10;;
70829;SDS011;58451;51.550;7.208;2022-12-07T09:28:10;10.40;;;3.40;;
70829;SDS011;58451;51.550;7.208;2022-12-07T09:29:42;10.90;;;3.80;;
70829;SDS011;58451;51.550;7.208;2022-12-07T09:31:14;13.60;;;3.80;;
70829;SDS011;58451;51.550;7.208;2022-12-07T09:32:56;12.10;;;3.40;;
70829;SDS011;58451;51.550;7.208;2022-12-07T09:34:31;13.00;;;4.10;;
70829;SDS011;58451;51.550;7.208;2022-12-07T09:36:03;12.00;;;3.50;;
70829;SDS011;58451;51.550;7.208;2022-12-07T09:37:36;12.30;;;4.20;;
70829;SDS011;58451;51.550;7.208;2022-12-07T09:39:08;12.30;;;3.50;;
70829;SDS011;58451;51.550;7.208;2022-12-07T09:40:43;14.90;;;4.50;;
70829;SDS011;58451;51.550;7.208;2022-12-07T09:42:37;10.40;;;4.00;;
70829;SDS011;58451;51.550;7.208;2022-12-07T09:44:23;10.10;;;3.80;;
70829;SDS011;58451;51.550;7.208;2022-12-07T09:45:56;13.40;;;4.00;;
70829;SDS011;58451;51.550;7.208;2022-12-07T09:47:29;11.40;;;3.90;;
70829;SDS011;58451;51.550;7.208;2022-12-07T09:49:01;8.60;;;3.40;;
70829;SDS011;58451;51.550;7.208;2022-12-07T09:50:33;7.40;;;3.00;;
70829;SDS011;58451;51.550;7.208;2022-12-07T09:53:41;8.90;;;3.00;;
70829;SDS011;58451;51.550;7.208;2022-12-07T09:55:29;15.80;;;3.70;;
70829;SDS011;58451;51.550;7.208;2022-12-07T09:57:02;9.30;;;2.90;;
70829;SDS011;58451;51.550;7.208;2022-12-07T09:58:34;11.80;;;3.70;;
70829;SDS011;58451;51.550;7.208;2022-12-07T10:00:12;9.20;;;2.80;;
70829;SDS011;58451;51.550;7.208;2022-12-07T10:01:47;10.20;;;3.50;;
70829;SDS011;58451;51.550;7.208;2022-12-07T10:03:21;9.30;;;3.40;;
70829;SDS011;58451;51.550;7.208;2022-12-07T10:04:53;11.30;;;3.00;;
70829;SDS011;58451;51.550;7.208;2022-12-07T10:06:25;10.70;;;3.30;;
70829;SDS011;58451;51.550;7.208;2022-12-07T10:07:57;10.70;;;3.50;;
70829;SDS011;58451;51.550;7.208;2022-12-07T10:09:29;9.50;;;3.00;;
70829;SDS011;58451;51.550;7.208;2022-12-07T10:11:06;10.20;;;2.50;;
70829;SDS011;58451;51.550;7.208;2022-12-07T10:13:12;11.10;;;3.10;;
70829;SDS011;58451;51.550;7.208;2022-12-07T10:14:55;10.40;;;3.10;;
70829;SDS011;58451;51.550;7.208;2022-12-07T10:16:41;9.90;;;2.30;;